sensor_id;sensor_type;location;lat;lon;timestamp;pressure;altitude;pressure_sealevel;temperature;humidity
46583;BME280;32309;48.858;8.252;2023-04-03T00:01:56;101178.31;;;4.36;64.14
46583;BME280;32309;48.858;8.252;2023-04-03T00:03:56;101176.50;;;4.41;63.36
46583;BME280;32309;48.858;8.252;2023-04-03T00:05:57;101173.28;;;4.30;64.65
46583;BME280;32309;48.858;8.252;2023-04-03T00:07:57;101180.94;;;4.31;64.62
46583;BME280;32309;48.858;8.252;2023-04-03T00:09:57;101181.00;;;4.28;64.53
46583;BME280;32309;48.858;8.252;2023-04-03T00:11:57;101177.50;;;4.32;64.58
46583;BME280;32309;48.858;8.252;2023-04-03T00:13:58;101184.44;;;4.29;65.12
46583;BME280;32309;48.858;8.252;2023-04-03T00:15:58;101184.34;;;4.33;64.34
46583;BME280;32309;48.858;8.252;2023-04-03T00:17:58;101180.09;;;4.31;64.20
46583;BME280;32309;48.858;8.252;2023-04-03T00:19:59;101180.13;;;4.29;64.94
46583;BME280;32309;48.858;8.252;2023-04-03T00:21:59;101184.28;;;4.38;64.01
46583;BME280;32309;48.858;8.252;2023-04-03T00:24:00;101181.88;;;4.27;65.44
46583;BME280;32309;48.858;8.252;2023-04-03T00:26:00;101176.78;;;4.24;65.63
46583;BME280;32309;48.858;8.252;2023-04-03T00:28:00;101176.81;;;4.23;65.49
46583;BME280;32309;48.858;8.252;2023-04-03T00:30:02;101173.41;;;4.24;65.36
46583;BME280;32309;48.858;8.252;2023-04-03T00:32:02;101180.16;;;4.28;65.04
46583;BME280;32309;48.858;8.252;2023-04-03T00:34:03;101181.88;;;4.27;65.13
46583;BME280;32309;48.858;8.252;2023-04-03T00:36:07;101175.91;;;4.27;65.18
46583;BME280;32309;48.858;8.252;2023-04-03T00:38:09;101177.63;;;4.26;65.06
46583;BME280;32309;48.858;8.252;2023-04-03T00:40:09;101179.31;;;4.29;65.05
46583;BME280;32309;48.858;8.252;2023-04-03T00:42:11;101186.28;;;4.19;65.54
46583;BME280;32309;48.858;8.252;2023-04-03T00:46:39;101178.56;;;4.21;65.71
46583;BME280;32309;48.858;8.252;2023-04-03T00:48:41;101177.72;;;4.20;66.17
46583;BME280;32309;48.858;8.252;2023-04-03T00:50:43;101178.50;;;4.25;65.06
46583;BME280;32309;48.858;8.252;2023-04-03T00:52:45;101186.25;;;4.21;65.78
46583;BME280;32309;48.858;8.252;2023-04-03T00:54:48;101182.84;;;4.20;65.59
46583;BME280;32309;48.858;8.252;2023-04-03T00:56:51;101186.25;;;4.21;65.76
46583;BME280;32309;48.858;8.252;2023-04-03T00:58:58;101184.56;;;4.20;65.74
46583;BME280;32309;48.858;8.252;2023-04-03T01:01:03;101182.06;;;4.16;66.01
46583;BME280;32309;48.858;8.252;2023-04-03T01:03:06;101191.44;;;4.18;65.91
46583;BME280;32309;48.858;8.252;2023-04-03T01:05:07;101182.03;;;4.18;65.87
46583;BME280;32309;48.858;8.252;2023-04-03T01:07:09;101181.13;;;4.21;65.11
46583;BME280;32309;48.858;8.252;2023-04-03T01:09:10;101176.91;;;4.16;65.25
46583;BME280;32309;48.858;8.252;2023-04-03T01:11:10;101170.03;;;4.20;65.09
46583;BME280;32309;48.858;8.252;2023-04-03T01:13:44;101177.78;;;4.17;65.32
46583;BME280;32309;48.858;8.252;2023-04-03T01:15:37;101179.56;;;4.10;66.39
46583;BME280;32309;48.858;8.252;2023-04-03T01:19:38;101177.78;;;4.15;65.60
46583;BME280;32309;48.858;8.252;2023-04-03T01:21:52;101179.53;;;4.13;65.70
46583;BME280;32309;48.858;8.252;2023-04-03T01:24:22;101179.59;;;4.09;65.65
46583;BME280;32309;48.858;8.252;2023-04-03T01:26:41;101177.97;;;4.05;66.75
46583;BME280;32309;48.858;8.252;2023-04-03T01:28:41;101177.16;;;4.03;66.82
46583;BME280;32309;48.858;8.252;2023-04-03T01:32:51;101178.06;;;4.00;67.09
46583;BME280;32309;48.858;8.252;2023-04-03T01:34:51;101183.97;;;4.05;66.49
46583;BME280;32309;48.858;8.252;2023-04-03T01:36:51;101189.13;;;4.02;66.24
46583;BME280;32309;48.858;8.252;2023-04-03T01:38:52;101184.03;;;3.99;66.70
46583;BME280;32309;48.858;8.252;2023-04-03T01:40:53;101186.63;;;3.97;66.45
46583;BME280;32309;48.858;8.252;2023-04-03T01:42:53;101177.22;;;3.98;66.16
46583;BME280;32309;48.858;8.252;2023-04-03T01:44:53;101187.53;;;3.95;66.58
46583;BME280;32309;48.858;8.252;2023-04-03T01:46:53;101181.59;;;3.91;66.51
46583;BME280;32309;48.858;8.252;2023-04-03T01:48:54;101185.84;;;3.92;66.56
46583;BME280;32309;48.858;8.252;2023-04-03T01:50:54;101185.00;;;3.92;66.20
46583;BME280;32309;48.858;8.252;2023-04-03T01:52:54;101178.28;;;3.85;66.28
46583;BME280;32309;48.858;8.252;2023-04-03T01:54:55;101176.53;;;3.85;66.27
46583;BME280;32309;48.858;8.252;2023-04-03T01:56:55;101178.34;;;3.78;66.42
46583;BME280;32309;48.858;8.252;2023-04-03T01:58:55;101174.84;;;3.86;65.48
46583;BME280;32309;48.858;8.252;2023-04-03T02:00:55;101176.53;;;3.85;65.74
46583;BME280;32309;48.858;8.252;2023-04-03T02:02:56;101173.22;;;3.78;66.03
46583;BME280;32309;48.858;8.252;2023-04-03T02:04:56;101176.66;;;3.79;66.07
46583;BME280;32309;48.858;8.252;2023-04-03T02:06:57;101174.19;;;3.73;66.44
46583;BME280;32309;48.858;8.252;2023-04-03T02:09:03;101169.91;;;3.72;66.27
46583;BME280;32309;48.858;8.252;2023-04-03T02:11:04;101172.44;;;3.73;65.77
46583;BME280;32309;48.858;8.252;2023-04-03T02:13:04;101179.38;;;3.66;66.64
46583;BME280;32309;48.858;8.252;2023-04-03T02:15:05;101176.09;;;3.58;66.86
46583;BME280;32309;48.858;8.252;2023-04-03T02:17:05;101172.66;;;3.59;66.94
46583;BME280;32309;48.858;8.252;2023-04-03T02:19:08;101175.25;;;3.58;66.74
46583;BME280;32309;48.858;8.252;2023-04-03T02:21:08;101176.03;;;3.61;66.44
46583;BME280;32309;48.858;8.252;2023-04-03T02:23:09;101175.28;;;3.55;66.68
46583;BME280;32309;48.858;8.252;2023-04-03T02:25:10;101175.31;;;3.53;67.22
46583;BME280;32309;48.858;8.252;2023-04-03T02:27:10;101166.69;;;3.57;66.34
46583;BME280;32309;48.858;8.252;2023-04-03T02:29:10;101162.53;;;3.50;66.67
46583;BME280;32309;48.858;8.252;2023-04-03T02:31:11;101166.06;;;3.41;67.40
46583;BME280;32309;48.858;8.252;2023-04-03T02:33:11;101167.72;;;3.45;66.79
46583;BME280;32309;48.858;8.252;2023-04-03T02:35:11;101172.06;;;3.39;66.81
46583;BME280;32309;48.858;8.252;2023-04-03T02:37:12;101167.84;;;3.36;66.95
46583;BME280;32309;48.858;8.252;2023-04-03T02:39:12;101167.91;;;3.31;67.09
46583;BME280;32309;48.858;8.252;2023-04-03T02:41:12;101171.34;;;3.30;67.00
46583;BME280;32309;48.858;8.252;2023-04-03T02:43:13;101159.34;;;3.32;66.65
46583;BME280;32309;48.858;8.252;2023-04-03T02:45:13;101168.75;;;3.32;66.41
46583;BME280;32309;48.858;8.252;2023-04-03T02:47:14;101167.97;;;3.27;66.52
46583;BME280;32309;48.858;8.252;2023-04-03T02:49:14;101168.94;;;3.15;67.17
46583;BME280;32309;48.858;8.252;2023-04-03T02:51:15;101174.06;;;3.18;66.70
46583;BME280;32309;48.858;8.252;2023-04-03T02:53:15;101174.16;;;3.10;67.05
46583;BME280;32309;48.858;8.252;2023-04-03T02:55:16;101173.38;;;3.00;67.38
46583;BME280;32309;48.858;8.252;2023-04-03T02:57:16;101169.19;;;2.95;67.99
46583;BME280;32309;48.858;8.252;2023-04-03T02:59:16;101170.91;;;2.94;67.83
46583;BME280;32309;48.858;8.252;2023-04-03T03:01:16;101172.59;;;2.97;67.54
46583;BME280;32309;48.858;8.252;2023-04-03T03:03:17;101184.59;;;2.90;67.88
46583;BME280;32309;48.858;8.252;2023-04-03T03:05:17;101177.03;;;2.82;68.33
46583;BME280;32309;48.858;8.252;2023-04-03T03:07:17;101182.16;;;2.79;68.33
46583;BME280;32309;48.858;8.252;2023-04-03T03:09:18;101186.50;;;2.73;68.83
46583;BME280;32309;48.858;8.252;2023-04-03T03:11:18;101184.81;;;2.70;68.59
46583;BME280;32309;48.858;8.252;2023-04-03T03:13:18;101179.75;;;2.65;69.13
46583;BME280;32309;48.858;8.252;2023-04-03T03:15:19;101180.59;;;2.66;68.72
46583;BME280;32309;48.858;8.252;2023-04-03T03:17:19;101183.16;;;2.66;68.87
46583;BME280;32309;48.858;8.252;2023-04-03T03:19:19;101181.50;;;2.62;69.09
46583;BME280;32309;48.858;8.252;2023-04-03T03:21:20;101181.50;;;2.60;69.20
46583;BME280;32309;48.858;8.252;2023-04-03T03:23:20;101184.97;;;2.56;69.38
46583;BME280;32309;48.858;8.252;2023-04-03T03:25:22;101183.22;;;2.60;68.83
46583;BME280;32309;48.858;8.252;2023-04-03T03:27:22;101178.97;;;2.56;69.28
46583;BME280;32309;48.858;8.252;2023-04-03T03:29:23;101182.44;;;2.52;69.08
46583;BME280;32309;48.858;8.252;2023-04-03T03:31:24;101185.84;;;2.54;69.39
46583;BME280;32309;48.858;8.252;2023-04-03T03:33:24;101180.78;;;2.47;69.33
46583;BME280;32309;48.858;8.252;2023-04-03T03:35:25;101191.91;;;2.43;69.57
46583;BME280;32309;48.858;8.252;2023-04-03T03:37:26;101185.97;;;2.40;69.69
46583;BME280;32309;48.858;8.252;2023-04-03T03:39:26;101188.56;;;2.35;69.93
46583;BME280;32309;48.858;8.252;2023-04-03T03:41:27;101185.19;;;2.30;70.25
46583;BME280;32309;48.858;8.252;2023-04-03T03:43:27;101181.78;;;2.32;69.81
46583;BME280;32309;48.858;8.252;2023-04-03T03:45:28;101188.63;;;2.29;70.07
46583;BME280;32309;48.858;8.252;2023-04-03T03:47:28;101182.69;;;2.22;70.63
46583;BME280;32309;48.858;8.252;2023-04-03T03:49:28;101180.16;;;2.22;70.20
46583;BME280;32309;48.858;8.252;2023-04-03T03:51:29;101195.53;;;2.19;70.40
46583;BME280;32309;48.858;8.252;2023-04-03T03:53:29;101182.75;;;2.16;70.39
46583;BME280;32309;48.858;8.252;2023-04-03T03:55:30;101188.78;;;2.07;70.94
46583;BME280;32309;48.858;8.252;2023-04-03T03:57:30;101189.59;;;2.12;71.04
46583;BME280;32309;48.858;8.252;2023-04-03T03:59:30;101192.22;;;2.06;71.39
46583;BME280;32309;48.858;8.252;2023-04-03T04:01:31;101199.88;;;2.06;71.71
46583;BME280;32309;48.858;8.252;2023-04-03T04:03:32;101197.34;;;2.00;71.85
46583;BME280;32309;48.858;8.252;2023-04-03T04:05:32;101199.06;;;1.96;72.18
46583;BME280;32309;48.858;8.252;2023-04-03T04:07:33;101195.69;;;1.96;72.23
46583;BME280;32309;48.858;8.252;2023-04-03T04:09:33;101199.06;;;1.96;71.58
46583;BME280;32309;48.858;8.252;2023-04-03T04:11:33;101201.69;;;1.90;72.22
46583;BME280;32309;48.858;8.252;2023-04-03T04:13:34;101201.72;;;1.86;72.65
46583;BME280;32309;48.858;8.252;2023-04-03T04:15:34;101201.72;;;1.84;72.45
46583;BME280;32309;48.858;8.252;2023-04-03T04:17:35;101202.56;;;1.83;72.90
46583;BME280;32309;48.858;8.252;2023-04-03T04:19:36;101202.56;;;1.83;73.07
46583;BME280;32309;48.858;8.252;2023-04-03T04:21:36;101204.31;;;1.82;72.56
46583;BME280;32309;48.858;8.252;2023-04-03T04:23:36;101206.88;;;1.81;72.40
46583;BME280;32309;48.858;8.252;2023-04-03T04:25:37;101211.97;;;1.79;72.67
46583;BME280;32309;48.858;8.252;2023-04-03T04:27:37;101212.00;;;1.76;73.12
46583;BME280;32309;48.858;8.252;2023-04-03T04:29:39;101215.44;;;1.71;73.17
46583;BME280;32309;48.858;8.252;2023-04-03T04:31:39;101214.59;;;1.67;73.12
46583;BME280;32309;48.858;8.252;2023-04-03T04:33:42;101208.66;;;1.65;73.81
46583;BME280;32309;48.858;8.252;2023-04-03T04:35:43;101206.13;;;1.65;74.22
46583;BME280;32309;48.858;8.252;2023-04-03T04:37:43;101209.50;;;1.67;73.94
46583;BME280;32309;48.858;8.252;2023-04-03T04:39:44;101207.81;;;1.64;73.79
46583;BME280;32309;48.858;8.252;2023-04-03T04:41:44;101206.09;;;1.63;74.25
46583;BME280;32309;48.858;8.252;2023-04-03T04:43:44;101213.78;;;1.62;73.93
46583;BME280;32309;48.858;8.252;2023-04-03T04:45:44;101216.34;;;1.56;74.10
46583;BME280;32309;48.858;8.252;2023-04-03T04:47:45;101209.53;;;1.58;74.13
46583;BME280;32309;48.858;8.252;2023-04-03T04:49:45;101212.94;;;1.57;74.13
46583;BME280;32309;48.858;8.252;2023-04-03T04:51:47;101214.66;;;1.56;74.62
46583;BME280;32309;48.858;8.252;2023-04-03T04:53:47;101207.84;;;1.55;74.91
46583;BME280;32309;48.858;8.252;2023-04-03T04:55:47;101218.09;;;1.54;74.93
46583;BME280;32309;48.858;8.252;2023-04-03T04:57:48;101216.38;;;1.54;74.76
46583;BME280;32309;48.858;8.252;2023-04-03T04:59:48;101216.34;;;1.56;75.08
46583;BME280;32309;48.858;8.252;2023-04-03T05:01:48;101221.47;;;1.57;74.95
46583;BME280;32309;48.858;8.252;2023-04-03T05:03:49;101233.38;;;1.58;75.23
46583;BME280;32309;48.858;8.252;2023-04-03T05:05:49;101227.41;;;1.62;75.36
46583;BME280;32309;48.858;8.252;2023-04-03T10:37:34;101285.38;;;6.85;49.42
46583;BME280;32309;48.858;8.252;2023-04-03T10:39:44;101283.63;;;6.87;48.42
46583;BME280;32309;48.858;8.252;2023-04-03T10:46:32;101289.81;;;6.79;49.80
46583;BME280;32309;48.858;8.252;2023-04-03T10:52:50;101280.22;;;6.85;48.59
46583;BME280;32309;48.858;8.252;2023-04-03T10:57:17;101279.25;;;6.90;47.82
46583;BME280;32309;48.858;8.252;2023-04-03T11:01:41;101280.03;;;6.92;48.66
46583;BME280;32309;48.858;8.252;2023-04-03T11:03:45;101264.38;;;7.00;48.79
46583;BME280;32309;48.858;8.252;2023-04-03T11:05:53;101272.91;;;7.02;49.16
46583;BME280;32309;48.858;8.252;2023-04-03T11:07:55;101267.81;;;6.99;49.50
46583;BME280;32309;48.858;8.252;2023-04-03T11:10:35;101268.56;;;7.04;49.23
46583;BME280;32309;48.858;8.252;2023-04-03T11:15:11;101266.78;;;7.06;49.41
46583;BME280;32309;48.858;8.252;2023-04-03T11:21:32;101265.03;;;7.07;48.07
46583;BME280;32309;48.858;8.252;2023-04-03T11:23:57;101257.00;;;7.18;47.11
46583;BME280;32309;48.858;8.252;2023-04-03T11:26:02;101267.38;;;7.16;45.73
46583;BME280;32309;48.858;8.252;2023-04-03T11:28:28;101258.03;;;7.12;46.27
46583;BME280;32309;48.858;8.252;2023-04-03T11:30:30;101257.88;;;7.18;46.25
46583;BME280;32309;48.858;8.252;2023-04-03T11:35:11;101261.91;;;7.27;47.07
46583;BME280;32309;48.858;8.252;2023-04-03T11:37:15;101253.44;;;7.23;47.10
46583;BME280;32309;48.858;8.252;2023-04-03T11:39:25;101257.47;;;7.32;47.49
46583;BME280;32309;48.858;8.252;2023-04-03T11:41:32;101250.34;;;7.40;48.11
46583;BME280;32309;48.858;8.252;2023-04-03T11:43:32;101236.31;;;7.50;46.70
46583;BME280;32309;48.858;8.252;2023-04-03T11:45:35;101251.66;;;7.55;47.47
46583;BME280;32309;48.858;8.252;2023-04-03T11:47:49;101254.91;;;7.62;45.82
46583;BME280;32309;48.858;8.252;2023-04-03T11:52:01;101251.75;;;7.52;45.67
46583;BME280;32309;48.858;8.252;2023-04-03T11:56:39;101241.56;;;7.47;45.92
46583;BME280;32309;48.858;8.252;2023-04-03T11:58:39;101233.22;;;7.39;46.47
46583;BME280;32309;48.858;8.252;2023-04-03T12:02:43;101245.03;;;7.46;44.73
46583;BME280;32309;48.858;8.252;2023-04-03T12:04:46;101244.97;;;7.48;44.48
46583;BME280;32309;48.858;8.252;2023-04-03T12:07:22;101244.28;;;7.43;45.26
46583;BME280;32309;48.858;8.252;2023-04-03T12:09:34;101234.78;;;7.45;43.99
46583;BME280;32309;48.858;8.252;2023-04-03T12:11:55;101239.09;;;7.44;43.86
46583;BME280;32309;48.858;8.252;2023-04-03T12:15:57;101240.09;;;7.39;43.86
46583;BME280;32309;48.858;8.252;2023-04-03T12:18:00;101227.41;;;7.32;44.37
46583;BME280;32309;48.858;8.252;2023-04-03T12:22:39;101236.94;;;7.29;46.12
46583;BME280;32309;48.858;8.252;2023-04-03T12:25:40;101232.56;;;7.31;45.28
46583;BME280;32309;48.858;8.252;2023-04-03T12:27:47;101234.38;;;7.29;46.73
46583;BME280;32309;48.858;8.252;2023-04-03T12:30:05;101225.50;;;7.38;46.77
46583;BME280;32309;48.858;8.252;2023-04-03T12:32:25;101227.97;;;7.42;46.78
46583;BME280;32309;48.858;8.252;2023-04-03T12:36:58;101228.28;;;7.31;46.41
46583;BME280;32309;48.858;8.252;2023-04-03T12:39:24;101236.78;;;7.35;45.66
46583;BME280;32309;48.858;8.252;2023-04-03T12:43:47;101230.13;;;7.26;45.68
46583;BME280;32309;48.858;8.252;2023-04-03T12:48:18;101224.00;;;7.30;45.85
46583;BME280;32309;48.858;8.252;2023-04-03T12:50:28;101226.75;;;7.24;46.11
46583;BME280;32309;48.858;8.252;2023-04-03T12:52:43;101223.53;;;7.16;46.57
46583;BME280;32309;48.858;8.252;2023-04-03T12:54:47;101228.84;;;7.10;47.03
46583;BME280;32309;48.858;8.252;2023-04-03T12:56:48;101227.19;;;7.09;46.25
46583;BME280;32309;48.858;8.252;2023-04-03T12:58:49;101226.53;;;7.02;46.80
46583;BME280;32309;48.858;8.252;2023-04-03T13:01:03;101231.69;;;7.00;47.43
46583;BME280;32309;48.858;8.252;2023-04-03T13:03:25;101226.34;;;7.08;46.55
46583;BME280;32309;48.858;8.252;2023-04-03T13:05:27;101225.53;;;7.06;46.89
46583;BME280;32309;48.858;8.252;2023-04-03T13:07:32;101221.81;;;7.16;45.82
46583;BME280;32309;48.858;8.252;2023-04-03T13:09:34;101216.88;;;7.09;46.06
46583;BME280;32309;48.858;8.252;2023-04-03T13:11:39;101227.09;;;7.12;47.38
46583;BME280;32309;48.858;8.252;2023-04-03T13:13:53;101217.56;;;7.15;47.72
46583;BME280;32309;48.858;8.252;2023-04-03T13:15:58;101224.38;;;7.16;47.13
46583;BME280;32309;48.858;8.252;2023-04-03T13:20:34;101229.09;;;7.02;47.54
46583;BME280;32309;48.858;8.252;2023-04-03T13:22:38;101220.38;;;7.06;46.75
46583;BME280;32309;48.858;8.252;2023-04-03T13:24:47;101218.81;;;7.00;47.05
46583;BME280;32309;48.858;8.252;2023-04-03T13:26:50;101221.13;;;7.10;47.15
46583;BME280;32309;48.858;8.252;2023-04-03T13:29:00;101218.53;;;7.10;46.38
46583;BME280;32309;48.858;8.252;2023-04-03T13:33:19;101215.09;;;7.11;47.44
46583;BME280;32309;48.858;8.252;2023-04-03T13:35:26;101211.63;;;7.12;47.56
46583;BME280;32309;48.858;8.252;2023-04-03T13:37:31;101211.31;;;7.23;47.04
46583;BME280;32309;48.858;8.252;2023-04-03T13:39:37;101221.59;;;7.24;46.15
46583;BME280;32309;48.858;8.252;2023-04-03T13:41:39;101222.50;;;7.23;46.34
46583;BME280;32309;48.858;8.252;2023-04-03T13:43:40;101213.03;;;7.24;45.96
46583;BME280;32309;48.858;8.252;2023-04-03T13:45:40;101224.31;;;7.20;45.65
46583;BME280;32309;48.858;8.252;2023-04-03T13:48:17;101218.38;;;7.16;46.59
46583;BME280;32309;48.858;8.252;2023-04-03T13:50:19;101212.41;;;7.15;46.49
46583;BME280;32309;48.858;8.252;2023-04-03T13:54:22;101207.97;;;7.19;46.42
46583;BME280;32309;48.858;8.252;2023-04-03T13:56:39;101210.44;;;7.24;46.62
46583;BME280;32309;48.858;8.252;2023-04-03T13:58:51;101213.06;;;7.22;45.91
46583;BME280;32309;48.858;8.252;2023-04-03T14:03:01;101213.38;;;7.11;46.55
46583;BME280;32309;48.858;8.252;2023-04-03T14:05:02;101207.31;;;7.12;46.03
46583;BME280;32309;48.858;8.252;2023-04-03T14:07:03;101203.09;;;7.10;46.02
46583;BME280;32309;48.858;8.252;2023-04-03T14:09:04;101209.94;;;7.11;45.98
46583;BME280;32309;48.858;8.252;2023-04-03T14:11:04;101208.25;;;7.10;45.30
46583;BME280;32309;48.858;8.252;2023-04-03T14:13:05;101214.38;;;7.06;46.70
46583;BME280;32309;48.858;8.252;2023-04-03T14:15:11;101223.81;;;7.07;45.79
46583;BME280;32309;48.858;8.252;2023-04-03T14:17:27;101216.94;;;7.06;44.98
46583;BME280;32309;48.858;8.252;2023-04-03T14:19:34;101217.97;;;7.00;45.66
46583;BME280;32309;48.858;8.252;2023-04-03T14:21:35;101208.78;;;6.90;45.90
46583;BME280;32309;48.858;8.252;2023-04-03T14:23:35;101210.50;;;6.91;46.92
46583;BME280;32309;48.858;8.252;2023-04-03T14:25:36;101215.50;;;6.95;46.02
46583;BME280;32309;48.858;8.252;2023-04-03T14:27:41;101207.75;;;6.97;46.16
46583;BME280;32309;48.858;8.252;2023-04-03T14:29:43;101207.88;;;6.92;45.87
46583;BME280;32309;48.858;8.252;2023-04-03T14:31:44;101200.75;;;7.00;46.11
46583;BME280;32309;48.858;8.252;2023-04-03T14:33:45;101195.44;;;7.07;45.54
46583;BME280;32309;48.858;8.252;2023-04-03T14:35:47;101194.47;;;7.11;45.10
46583;BME280;32309;48.858;8.252;2023-04-03T14:37:50;101192.69;;;7.13;45.57
46583;BME280;32309;48.858;8.252;2023-04-03T14:39:55;101188.28;;;7.16;44.80
46583;BME280;32309;48.858;8.252;2023-04-03T14:41:56;101182.28;;;7.16;45.34
46583;BME280;32309;48.858;8.252;2023-04-03T14:43:56;101195.03;;;7.22;44.52
46583;BME280;32309;48.858;8.252;2023-04-03T14:45:56;101184.50;;;7.30;45.28
46583;BME280;32309;48.858;8.252;2023-04-03T14:47:57;101178.34;;;7.34;45.37
46583;BME280;32309;48.858;8.252;2023-04-03T14:50:02;101186.75;;;7.41;45.07
46583;BME280;32309;48.858;8.252;2023-04-03T14:52:04;101180.69;;;7.42;44.35
46583;BME280;32309;48.858;8.252;2023-04-03T14:54:05;101183.44;;;7.36;44.02
46583;BME280;32309;48.858;8.252;2023-04-03T14:56:13;101182.56;;;7.37;44.65
46583;BME280;32309;48.858;8.252;2023-04-03T14:58:18;101178.34;;;7.34;44.28
46583;BME280;32309;48.858;8.252;2023-04-03T15:00:20;101179.22;;;7.33;44.48
46583;BME280;32309;48.858;8.252;2023-04-03T15:04:22;101182.69;;;7.32;44.93
46583;BME280;32309;48.858;8.252;2023-04-03T15:06:22;101180.09;;;7.32;44.91
46583;BME280;32309;48.858;8.252;2023-04-03T15:08:24;101177.75;;;7.24;44.19
46583;BME280;32309;48.858;8.252;2023-04-03T15:10:29;101178.66;;;7.23;44.45
46583;BME280;32309;48.858;8.252;2023-04-03T15:12:31;101178.63;;;7.25;44.17
46583;BME280;32309;48.858;8.252;2023-04-03T15:14:31;101175.44;;;7.15;44.93
46583;BME280;32309;48.858;8.252;2023-04-03T15:16:31;101171.16;;;7.15;44.75
46583;BME280;32309;48.858;8.252;2023-04-03T15:18:33;101172.13;;;7.11;45.42
46583;BME280;32309;48.858;8.252;2023-04-03T15:20:37;101166.09;;;7.11;45.31
46583;BME280;32309;48.858;8.252;2023-04-03T15:22:37;101171.94;;;7.18;46.05
46583;BME280;32309;48.858;8.252;2023-04-03T15:24:38;101167.38;;;7.27;46.17
46583;BME280;32309;48.858;8.252;2023-04-03T15:26:38;101163.38;;;7.45;44.84
46583;BME280;32309;48.858;8.252;2023-04-03T15:28:42;101172.09;;;7.41;44.29
46583;BME280;32309;48.858;8.252;2023-04-03T15:30:43;101174.59;;;7.44;44.46
46583;BME280;32309;48.858;8.252;2023-04-03T15:32:44;101172.25;;;7.37;44.10
46583;BME280;32309;48.858;8.252;2023-04-03T15:34:45;101168.09;;;7.31;44.31
46583;BME280;32309;48.858;8.252;2023-04-03T15:36:45;101180.25;;;7.27;44.30
46583;BME280;32309;48.858;8.252;2023-04-03T15:38:45;101176.09;;;7.22;44.33
46583;BME280;32309;48.858;8.252;2023-04-03T15:40:46;101175.22;;;7.23;43.54
46583;BME280;32309;48.858;8.252;2023-04-03T15:42:49;101174.59;;;7.14;44.28
46583;BME280;32309;48.858;8.252;2023-04-03T15:44:50;101172.16;;;7.10;43.51
46583;BME280;32309;48.858;8.252;2023-04-03T15:46:50;101168.03;;;7.04;43.84
46583;BME280;32309;48.858;8.252;2023-04-03T15:48:51;101167.84;;;7.10;43.93
46583;BME280;32309;48.858;8.252;2023-04-03T15:50:51;101169.63;;;7.08;44.31
46583;BME280;32309;48.858;8.252;2023-04-03T15:52:52;101168.63;;;7.12;44.30
46583;BME280;32309;48.858;8.252;2023-04-03T15:54:54;101160.63;;;7.23;43.43
46583;BME280;32309;48.858;8.252;2023-04-03T15:56:55;101163.19;;;7.23;44.25
46583;BME280;32309;48.858;8.252;2023-04-03T15:58:55;101165.66;;;7.26;44.24
46583;BME280;32309;48.858;8.252;2023-04-03T16:00:56;101168.03;;;7.34;43.22
46583;BME280;32309;48.858;8.252;2023-04-03T16:02:58;101166.28;;;7.35;42.29
46583;BME280;32309;48.858;8.252;2023-04-03T16:05:01;101164.75;;;7.29;42.63
46583;BME280;32309;48.858;8.252;2023-04-03T16:07:02;101174.50;;;7.18;42.74
46583;BME280;32309;48.858;8.252;2023-04-03T16:09:04;101167.09;;;7.07;42.84
46583;BME280;32309;48.858;8.252;2023-04-03T16:11:04;101175.81;;;7.03;43.45
46583;BME280;32309;48.858;8.252;2023-04-03T16:13:05;101175.91;;;6.99;42.98
46583;BME280;32309;48.858;8.252;2023-04-03T16:15:06;101170.03;;;6.94;42.75
46583;BME280;32309;48.858;8.252;2023-04-03T16:17:12;101176.94;;;6.92;43.52
46583;BME280;32309;48.858;8.252;2023-04-03T16:19:13;101177.09;;;6.86;43.58
46583;BME280;32309;48.858;8.252;2023-04-03T16:21:13;101176.25;;;6.86;43.69
46583;BME280;32309;48.858;8.252;2023-04-03T16:23:15;101180.28;;;6.96;42.10
46583;BME280;32309;48.858;8.252;2023-04-03T16:25:16;101170.84;;;6.95;42.08
46583;BME280;32309;48.858;8.252;2023-04-03T16:27:17;101173.34;;;6.98;42.07
46583;BME280;32309;48.858;8.252;2023-04-03T16:29:17;101161.16;;;7.03;41.21
46583;BME280;32309;48.858;8.252;2023-04-03T16:31:18;101166.97;;;7.11;40.97
46583;BME280;32309;48.858;8.252;2023-04-03T16:33:18;101159.03;;;7.18;41.03
46583;BME280;32309;48.858;8.252;2023-04-03T16:35:21;101171.25;;;7.11;41.30
46583;BME280;32309;48.858;8.252;2023-04-03T16:37:24;101171.44;;;7.05;41.21
46583;BME280;32309;48.858;8.252;2023-04-03T16:39:25;101155.09;;;7.06;41.23
46583;BME280;32309;48.858;8.252;2023-04-03T16:41:25;101164.88;;;6.94;41.00
46583;BME280;32309;48.858;8.252;2023-04-03T16:43:26;101168.50;;;6.87;42.01
46583;BME280;32309;48.858;8.252;2023-04-03T16:45:26;101169.72;;;6.74;42.70
46583;BME280;32309;48.858;8.252;2023-04-03T16:47:27;101182.50;;;6.77;41.90
46583;BME280;32309;48.858;8.252;2023-04-03T16:49:27;101167.13;;;6.74;41.64
46583;BME280;32309;48.858;8.252;2023-04-03T16:51:32;101176.91;;;6.61;41.97
46583;BME280;32309;48.858;8.252;2023-04-03T16:53:32;101175.47;;;6.50;43.09
46583;BME280;32309;48.858;8.252;2023-04-03T16:55:33;101165.22;;;6.49;42.89
46583;BME280;32309;48.858;8.252;2023-04-03T16:57:33;101167.53;;;6.60;42.91
46583;BME280;32309;48.858;8.252;2023-04-03T16:59:34;101172.00;;;6.52;43.25
46583;BME280;32309;48.858;8.252;2023-04-03T17:01:34;101163.28;;;6.57;43.49
46583;BME280;32309;48.858;8.252;2023-04-03T17:03:34;101170.22;;;6.55;43.00
46583;BME280;32309;48.858;8.252;2023-04-03T17:05:35;101164.09;;;6.59;43.79
46583;BME280;32309;48.858;8.252;2023-04-03T17:07:35;101178.25;;;6.76;42.70
46583;BME280;32309;48.858;8.252;2023-04-03T17:09:36;101172.00;;;6.85;42.03
46583;BME280;32309;48.858;8.252;2023-04-03T17:11:37;101171.00;;;6.90;41.58
46583;BME280;32309;48.858;8.252;2023-04-03T17:13:38;101178.84;;;6.86;42.25
46583;BME280;32309;48.858;8.252;2023-04-03T17:15:38;101177.97;;;6.87;41.79
46583;BME280;32309;48.858;8.252;2023-04-03T17:17:39;101172.00;;;6.85;41.59
46583;BME280;32309;48.858;8.252;2023-04-03T17:19:39;101177.25;;;6.81;42.03
46583;BME280;32309;48.858;8.252;2023-04-03T17:21:42;101174.72;;;6.80;41.91